Time;durP1;ratioP1;P1;durP2;ratioP2;P2;SDS_P1;SDS_P2;PMS_P1;PMS_P2;Temp;Humidity;BMP_temperature;BMP_pressure;BME280_temperature;BME280_humidity;BME280_pressure;Samples;Min_cycle;Max_cycle;Signal;HPM_P1;HPM_P2
2021/03/04 00:01:07;;;;;;;71.82;35.63;;;;;;;9.25;100.00;102629.94;5072614;28;20522;-64
2021/03/04 00:03:32;;;;;;;73.15;36.90;;;;;;;9.24;100.00;102628.22;5072401;28;20048;-64
2021/03/04 00:05:58;;;;;;;80.75;36.25;;;;;;;9.22;100.00;102629.47;5072387;28;20107;-64
2021/03/04 00:08:23;;;;;;;82.88;38.33;;;;;;;9.19;100.00;102625.22;5072484;28;20508;-64
2021/03/04 00:10:49;;;;;;;77.90;37.42;;;;;;;9.17;100.00;102621.81;5072492;28;20111;-64
2021/03/04 00:13:15;;;;;;;84.15;38.30;;;;;;;9.14;100.00;102622.22;5072111;28;20540;-64
2021/03/04 00:15:41;;;;;;;94.80;41.08;;;;;;;9.12;100.00;102623.44;5071403;28;20475;-64
2021/03/04 00:18:07;;;;;;;96.68;43.25;;;;;;;9.10;100.00;102630.97;5054408;28;20032;-64
2021/03/04 00:20:33;;;;;;;100.80;44.28;;;;;;;9.07;100.00;102629.47;5072007;28;20502;-64
2021/03/04 00:23:00;;;;;;;94.65;43.22;;;;;;;9.03;100.00;102631.72;5072177;28;20147;-64
2021/03/04 00:25:31;;;;;;;101.68;44.75;;;;;;;9.00;100.00;102626.63;5072157;28;20044;-64
2021/03/04 00:27:57;;;;;;;92.28;43.08;;;;;;;8.99;100.00;102635.00;5072027;28;20089;-64
2021/03/04 00:30:24;;;;;;;95.13;43.78;;;;;;;8.98;100.00;102650.50;5071973;28;20049;-64
2021/03/04 00:32:49;;;;;;;95.28;44.28;;;;;;;8.97;100.00;102645.25;5071909;28;20051;-64
2021/03/04 00:35:15;;;;;;;93.10;43.92;;;;;;;8.97;100.00;102647.97;5053813;28;20044;-64
2021/03/04 00:37:42;;;;;;;104.38;45.08;;;;;;;8.98;100.00;102655.09;5071986;28;20029;-63
2021/03/04 00:40:10;;;;;;;100.70;44.70;;;;;;;9.01;100.00;102655.56;5071816;28;20474;-64
2021/03/04 00:42:36;;;;;;;96.82;46.28;;;;;;;9.02;100.00;102648.25;5071606;28;20383;-63
2021/03/04 00:45:22;;;;;;;109.22;47.30;;;;;;;9.05;100.00;102646.00;5053536;28;20056;-64
2021/03/04 00:47:48;;;;;;;110.47;49.15;;;;;;;9.07;100.00;102654.00;5071704;28;20032;-64
2021/03/04 00:50:17;;;;;;;103.53;45.25;;;;;;;9.09;100.00;102642.91;5071475;28;20482;-64
2021/03/04 00:52:42;;;;;;;103.28;47.15;;;;;;;9.08;100.00;102647.50;5071509;28;20486;-64
2021/03/04 00:55:08;;;;;;;103.65;46.65;;;;;;;9.11;100.00;102638.09;5071670;28;20029;-63
2021/03/04 00:57:34;;;;;;;104.50;48.45;;;;;;;9.11;100.00;102638.94;5053251;28;20076;-64
2021/03/04 00:59:59;;;;;;;107.15;47.80;;;;;;;9.12;100.00;102635.19;5071484;28;20051;-64
2021/03/04 01:02:25;;;;;;;104.13;46.03;;;;;;;9.15;100.00;102639.41;5071426;28;20062;-63
2021/03/04 01:04:51;;;;;;;105.05;46.03;;;;;;;9.16;100.00;102631.03;5071223;28;20067;-63
2021/03/04 01:07:16;;;;;;;99.18;47.88;;;;;;;9.18;100.00;102623.53;5071406;28;20490;-64
2021/03/04 01:09:42;;;;;;;109.82;48.33;;;;;;;9.21;100.00;102622.31;5071284;28;20059;-64
2021/03/04 01:12:08;;;;;;;110.03;49.78;;;;;;;9.23;100.00;102626.53;5070928;28;20072;-64
2021/03/04 01:14:34;;;;;;;111.85;48.20;;;;;;;9.23;100.00;102620.25;5071210;28;20546;-64
2021/03/04 01:17:00;;;;;;;94.88;45.17;;;;;;;9.23;100.00;102621.09;5071183;28;20406;-64
2021/03/04 01:19:25;;;;;;;107.07;50.35;;;;;;;9.24;100.00;102621.94;5070888;28;20037;-64
2021/03/04 01:21:51;;;;;;;108.97;48.03;;;;;;;9.21;100.00;102623.16;5071028;28;20441;-64
2021/03/04 01:24:17;;;;;;;103.97;47.40;;;;;;;9.18;100.00;102622.66;5071057;28;20520;-64
2021/03/04 01:26:43;;;;;;;105.15;47.72;;;;;;;9.15;100.00;102623.06;5070679;28;20044;-64
2021/03/04 01:29:08;;;;;;;103.18;46.40;;;;;;;9.09;100.00;102619.22;5071044;28;20127;-64
2021/03/04 01:31:34;;;;;;;108.95;48.72;;;;;;;9.06;100.00;102625.06;5070907;28;20033;-64
2021/03/04 01:33:59;;;;;;;109.68;47.88;;;;;;;9.04;100.00;102621.66;5070693;28;20509;-64
2021/03/04 01:36:25;;;;;;;112.53;48.13;;;;;;;9.03;100.00;102619.97;5036135;28;20059;-64
2021/03/04 01:38:50;;;;;;;110.82;51.30;;;;;;;9.03;100.00;102625.44;5070931;28;20040;-64
2021/03/04 01:41:16;;;;;;;115.25;50.22;;;;;;;9.04;100.00;102621.66;5070665;28;20502;-64
2021/03/04 01:43:42;;;;;;;117.25;49.00;;;;;;;9.05;100.00;102623.34;5052908;28;20451;-64
2021/03/04 01:46:08;;;;;;;117.60;49.65;;;;;;;9.07;100.00;102615.84;5070583;28;20124;-64
2021/03/04 01:48:34;;;;;;;119.95;50.78;;;;;;;9.08;100.00;102614.81;5070655;28;20221;-64
2021/03/04 01:50:59;;;;;;;113.97;50.55;;;;;;;9.12;100.00;102618.84;5070758;28;20504;-64
2021/03/04 01:53:26;;;;;;;117.80;50.40;;;;;;;9.14;100.00;102615.91;5070558;28;20044;-65
2021/03/04 01:55:52;;;;;;;113.07;49.67;;;;;;;9.16;100.00;102622.88;5070449;28;20041;-64
2021/03/04 01:58:18;;;;;;;118.63;50.20;;;;;;;9.15;100.00;102613.00;5070707;28;20415;-64
2021/03/04 02:00:43;;;;;;;120.85;49.42;;;;;;;9.18;100.00;102611.75;5070580;28;20036;-64
2021/03/04 02:03:09;;;;;;;109.15;47.33;;;;;;;9.18;100.00;102612.59;5070443;28;20375;-64
2021/03/04 02:05:35;;;;;;;112.75;47.33;;;;;;;9.18;100.00;102615.34;5070749;28;20044;-63
2021/03/04 02:08:20;;;;;;;102.85;46.25;;;;;;;9.16;100.00;102608.38;5070505;28;20040;-64
2021/03/04 02:11:09;;;;;;;;;;;;;;;9.16;100.00;102611.97;5071029;28;20427;-64
2021/03/04 02:13:46;;;;;;;109.10;45.35;;;;;;;9.16;100.00;102606.50;5064672;28;20049;-63
2021/03/04 02:16:20;;;;;;;113.00;48.08;;;;;;;9.16;100.00;102606.50;5070476;28;20124;-64
2021/03/04 02:18:54;;;;;;;105.93;45.90;;;;;;;9.15;100.00;102601.25;5070241;28;20391;-64
2021/03/04 02:21:38;;;;;;;102.25;46.72;;;;;;;9.14;100.00;102605.84;5070501;28;20044;-64
2021/03/04 02:24:29;;;;;;;111.85;45.85;;;;;;;9.14;100.00;102599.56;5070389;28;20037;-64
2021/03/04 02:27:14;;;;;;;120.22;50.20;;;;;;;9.14;100.00;102597.69;5070173;28;20486;-64
2021/03/04 02:29:46;;;;;;;122.55;54.00;;;;;;;9.15;100.00;102602.09;5070370;28;20043;-64
2021/03/04 02:32:13;;;;;;;127.78;52.80;;;;;;;9.17;100.00;102602.75;5070252;28;20437;-64
2021/03/04 02:34:46;;;;;;;127.78;53.83;;;;;;;9.19;100.00;102608.84;5070646;28;20671;-64
2021/03/04 02:37:15;;;;;;;123.55;53.78;;;;;;;9.20;100.00;102598.78;5070489;28;20036;-64
2021/03/04 02:39:44;;;;;;;123.13;52.50;;;;;;;9.20;100.00;102605.13;5073388;28;20043;-64
2021/03/04 02:42:16;;;;;;;117.10;50.00;;;;;;;9.18;100.00;102601.69;5074060;28;20024;-63
2021/03/04 02:44:42;;;;;;;106.88;47.92;;;;;;;9.19;100.00;102602.56;5073963;28;20485;-64
2021/03/04 02:47:08;;;;;;;106.72;48.08;;;;;;;9.17;100.00;102605.47;5073937;28;20044;-64
2021/03/04 02:49:35;;;;;;;109.15;50.42;;;;;;;9.15;100.00;102602.09;5074037;28;20040;-64
2021/03/04 02:52:01;;;;;;;104.10;48.22;;;;;;;9.12;100.00;102607.94;5073866;28;20414;-63
2021/03/04 02:54:28;;;;;;;104.70;48.50;;;;;;;9.10;100.00;102599.09;5073738;28;20047;-64
2021/03/04 02:56:55;;;;;;;105.05;46.70;;;;;;;9.04;100.00;102599.88;5073944;28;20036;-64
2021/03/04 02:59:21;;;;;;;100.43;48.83;;;;;;;9.01;100.00;102605.66;5073894;28;20490;-64
2021/03/04 03:01:47;;;;;;;106.25;47.78;;;;;;;8.98;100.00;102592.44;5073514;28;20037;-64
2021/03/04 03:04:17;;;;;;;113.95;49.35;;;;;;;8.97;100.00;102593.47;5073753;28;20445;-64
2021/03/04 03:06:44;;;;;;;104.70;47.47;;;;;;;8.95;100.00;102598.25;5073559;28;20111;-64
2021/03/04 03:09:10;;;;;;;109.30;49.53;;;;;;;8.94;100.00;102593.84;5073533;28;20044;-64
2021/03/04 03:11:37;;;;;;;103.55;46.63;;;;;;;8.92;100.00;102590.47;5073551;28;20135;-64
2021/03/04 03:14:03;;;;;;;108.30;51.08;;;;;;;8.92;100.00;102595.91;5073429;28;20032;-63
2021/03/04 03:16:29;;;;;;;120.95;51.05;;;;;;;8.86;100.00;102574.88;5073413;28;20051;-64
2021/03/04 03:18:55;;;;;;;114.93;52.30;;;;;;;8.84;100.00;102587.81;5073889;28;20037;-64
2021/03/04 03:21:21;;;;;;;128.52;53.25;;;;;;;8.80;100.00;102583.78;5073297;28;20544;-63
2021/03/04 03:23:47;;;;;;;113.65;50.92;;;;;;;8.76;100.00;102580.59;5073342;28;20040;-63
2021/03/04 03:26:12;;;;;;;126.75;52.60;;;;;;;8.73;100.00;102581.81;5073426;28;20171;-64
2021/03/04 03:28:39;;;;;;;121.45;52.72;;;;;;;8.71;100.00;102589.34;5073312;28;20550;-64
2021/03/04 03:31:06;;;;;;;121.78;52.92;;;;;;;8.68;100.00;102580.69;5073184;28;20068;-64
2021/03/04 03:33:34;;;;;;;123.78;52.83;;;;;;;8.66;100.00;102590.91;5073043;28;20040;-64
2021/03/04 03:35:59;;;;;;;123.20;53.40;;;;;;;8.64;100.00;102577.47;5073168;28;20123;-64
2021/03/04 03:38:25;;;;;;;128.05;54.78;;;;;;;8.63;100.00;102575.78;5073054;28;20040;-64
2021/03/04 03:40:54;;;;;;;124.20;53.15;;;;;;;8.60;100.00;102581.63;5073099;28;20045;-64
2021/03/04 03:43:23;;;;;;;121.85;54.72;;;;;;;8.58;100.00;102567.34;5073011;28;20037;-63
2021/03/04 03:45:50;;;;;;;134.27;57.53;;;;;;;8.56;100.00;102580.31;5072667;28;20135;-64
2021/03/04 03:48:18;;;;;;;142.32;56.53;;;;;;;8.55;100.00;102589.50;5072814;28;20051;-64
2021/03/04 03:50:48;;;;;;;125.28;54.33;;;;;;;8.53;100.00;102574.38;5071551;28;20489;-63
2021/03/04 03:53:15;;;;;;;126.60;56.17;;;;;;;8.53;100.00;102580.69;5072695;28;20037;-64
2021/03/04 03:55:44;;;;;;;124.63;54.33;;;;;;;8.54;100.00;102593.25;5072661;28;20047;-64
2021/03/04 03:58:10;;;;;;;132.55;55.58;;;;;;;8.56;100.00;102584.91;5073127;28;20406;-64
2021/03/04 04:00:36;;;;;;;126.13;54.60;;;;;;;8.55;100.00;102584.06;5073075;28;20036;-64
2021/03/04 04:03:04;;;;;;;131.68;56.22;;;;;;;8.57;100.00;102592.03;5072838;28;20037;-64
2021/03/04 04:05:31;;;;;;;136.15;57.67;;;;;;;8.56;100.00;102584.91;5072696;28;20453;-63
2021/03/04 04:07:58;;;;;;;121.15;55.25;;;;;;;8.56;100.00;102588.47;5072525;28;20040;-64
2021/03/04 04:10:29;;;;;;;126.72;55.70;;;;;;;8.58;100.00;102582.84;5072307;28;20044;-63
2021/03/04 04:12:56;;;;;;;133.63;55.88;;;;;;;8.58;100.00;102583.69;5072430;28;20487;-64
2021/03/04 04:15:22;;;;;;;129.15;55.38;;;;;;;8.59;100.00;102585.38;5072454;28;20047;-64
2021/03/04 04:17:48;;;;;;;127.55;54.08;;;;;;;8.59;100.00;102590.81;5072125;28;20040;-65
2021/03/04 04:20:16;;;;;;;131.30;53.97;;;;;;;8.60;100.00;102592.50;5072458;28;20468;-63
2021/03/04 04:22:42;;;;;;;128.77;53.40;;;;;;;8.61;100.00;102594.19;5072220;28;20039;-63
2021/03/04 04:25:09;;;;;;;122.70;52.95;;;;;;;8.62;100.00;102584.16;5072006;28;20040;-64
2021/03/04 04:27:34;;;;;;;121.53;51.88;;;;;;;8.60;100.00;102592.50;5072120;28;20513;-64
2021/03/04 04:30:00;;;;;;;131.82;53.88;;;;;;;8.59;100.00;102585.38;5072097;28;20036;-64
2021/03/04 04:32:25;;;;;;;117.32;50.85;;;;;;;8.63;100.00;102591.28;5071689;28;20051;-64
2021/03/04 04:34:51;;;;;;;124.32;51.47;;;;;;;8.61;100.00;102586.03;5054016;28;20040;-64
2021/03/04 04:37:17;;;;;;;121.70;52.00;;;;;;;8.64;100.00;102592.97;5072062;28;20542;-64
2021/03/04 04:39:43;;;;;;;115.07;48.28;;;;;;;8.62;100.00;102595.03;5071811;28;20115;-64
2021/03/04 04:42:09;;;;;;;116.57;47.17;;;;;;;8.63;100.00;102596.75;5071723;28;20135;-64
2021/03/04 04:44:34;;;;;;;115.45;48.30;;;;;;;8.63;100.00;102597.59;5071701;28;20036;-63
2021/03/04 04:47:00;;;;;;;116.50;46.50;;;;;;;8.63;100.00;102597.59;5071506;28;20119;-63
2021/03/04 04:49:26;;;;;;;113.25;48.30;;;;;;;8.64;100.00;102599.28;5071914;28;20036;-64
2021/03/04 04:51:51;;;;;;;114.03;47.47;;;;;;;8.65;100.00;102595.50;5071455;28;20037;-64
2021/03/04 04:54:17;;;;;;;110.43;46.17;;;;;;;8.67;100.00;102600.78;5071531;28;20395;-64
2021/03/04 04:56:42;;;;;;;111.30;46.55;;;;;;;8.68;100.00;102599.78;5071620;28;20040;-64
2021/03/04 04:59:08;;;;;;;113.30;48.70;;;;;;;8.68;100.00;102587.00;5071553;28;20044;-64
2021/03/04 05:01:34;;;;;;;118.40;47.80;;;;;;;8.68;100.00;102589.72;5070953;28;20123;-64
2021/03/04 05:03:59;;;;;;;109.60;45.70;;;;;;;8.71;100.00;102588.50;5071426;28;20075;-64
2021/03/04 05:06:25;;;;;;;114.40;46.20;;;;;;;8.71;100.00;102594.78;5071396;28;20037;-64
2021/03/04 05:08:50;;;;;;;117.20;47.45;;;;;;;8.71;100.00;102594.78;5071231;28;20090;-64
2021/03/04 05:11:16;;;;;;;111.95;47.67;;;;;;;8.72;100.00;102601.06;5071281;28;20498;-64
2021/03/04 05:13:44;;;;;;;116.80;49.03;;;;;;;8.73;100.00;102603.63;5071218;28;20098;-64
2021/03/04 05:16:10;;;;;;;110.82;47.80;;;;;;;8.73;100.00;102598.16;5071006;28;20044;-64
2021/03/04 05:18:36;;;;;;;117.05;48.10;;;;;;;8.74;100.00;102599.84;5071276;28;20410;-64
2021/03/04 05:21:01;;;;;;;115.85;49.30;;;;;;;8.76;100.00;102603.25;5071136;28;20032;-63
2021/03/04 05:23:27;;;;;;;116.15;46.70;;;;;;;8.77;100.00;102604.94;5070998;28;20521;-63
2021/03/04 05:25:53;;;;;;;111.13;45.72;;;;;;;8.77;100.00;102599.47;5071261;28;20119;-64
2021/03/04 05:28:18;;;;;;;114.45;48.13;;;;;;;8.79;100.00;102598.44;5071225;28;20510;-64
2021/03/04 05:30:44;;;;;;;112.00;47.70;;;;;;;8.80;100.00;102605.56;5070736;28;20041;-64
2021/03/04 05:33:10;;;;;;;113.05;47.65;;;;;;;8.79;100.00;102606.63;5070882;28;20058;-64
2021/03/04 05:35:36;;;;;;;112.53;48.17;;;;;;;8.79;100.00;102612.91;5071335;28;20055;-64
2021/03/04 05:38:02;;;;;;;112.82;46.30;;;;;;;8.80;100.00;102613.75;5070785;28;20032;-64
2021/03/04 05:40:27;;;;;;;117.13;47.30;;;;;;;8.80;100.00;102617.31;5070820;28;20496;-64
2021/03/04 05:42:55;;;;;;;111.10;46.63;;;;;;;8.80;100.00;102609.16;5070800;28;20418;-64
2021/03/04 05:45:23;;;;;;;111.15;46.90;;;;;;;8.80;100.00;102609.16;5070410;28;20045;-64
2021/03/04 05:47:49;;;;;;;117.57;48.15;;;;;;;8.80;100.00;102613.75;5070895;28;20051;-64
2021/03/04 05:50:21;;;;;;;109.57;45.80;;;;;;;8.79;100.00;102612.91;5070707;28;20510;-64
2021/03/04 05:52:50;;;;;;;106.18;45.60;;;;;;;8.79;100.00;102612.06;5070436;28;20036;-64
2021/03/04 05:55:17;;;;;;;104.30;44.30;;;;;;;8.77;100.00;102612.25;5070626;28;20090;-65
2021/03/04 05:57:46;;;;;;;103.10;44.72;;;;;;;8.75;100.00;102612.44;5070664;28;20054;-64
2021/03/04 06:00:14;;;;;;;109.38;44.45;;;;;;;8.75;100.00;102609.72;5070673;28;20459;-64
2021/03/04 06:02:42;;;;;;;102.10;43.28;;;;;;;8.74;100.00;102609.91;5070442;28;20040;-64
2021/03/04 06:05:11;;;;;;;94.65;41.35;;;;;;;8.73;100.00;102619.97;5070635;28;20093;-64
2021/03/04 06:07:38;;;;;;;101.90;42.60;;;;;;;8.71;100.00;102613.84;5070357;28;20570;-63
2021/03/04 06:10:04;;;;;;;103.55;41.30;;;;;;;8.70;100.00;102620.34;5070604;28;20037;-64
2021/03/04 06:12:30;;;;;;;105.45;44.33;;;;;;;8.69;100.00;102612.34;5070280;28;20509;-64
2021/03/04 06:14:56;;;;;;;100.45;41.90;;;;;;;8.68;100.00;102611.50;5074415;28;20040;-64
2021/03/04 06:17:21;;;;;;;93.40;40.83;;;;;;;8.68;100.00;102622.41;5074919;28;20440;-64
2021/03/04 06:20:01;;;;;;;95.55;41.90;;;;;;;8.69;100.00;102618.66;5074743;28;20165;-64
2021/03/04 06:22:31;;;;;;;96.43;40.63;;;;;;;8.69;100.00;102625.97;5074323;28;20100;-64
2021/03/04 06:24:58;;;;;;;93.97;39.83;;;;;;;8.68;100.00;102627.00;5056486;28;20046;-63
2021/03/04 06:27:29;;;;;;;96.68;40.00;;;;;;;8.65;100.00;102628.19;5074377;28;20032;-64
2021/03/04 06:30:00;;;;;;;92.03;38.05;;;;;;;8.65;100.00;102628.19;5074208;28;20136;-64
2021/03/04 06:32:27;;;;;;;94.97;38.78;;;;;;;8.66;100.00;102629.88;5074367;28;20037;-64
2021/03/04 06:35:09;;;;;;;97.38;40.50;;;;;;;8.65;100.00;102633.66;5074296;28;20036;-64
2021/03/04 06:37:42;;;;;;;94.10;39.15;;;;;;;8.66;100.00;102635.34;5074113;28;20556;-64
2021/03/04 06:40:27;;;;;;;81.80;35.72;;;;;;;8.66;100.00;102634.50;5074354;28;20101;-64
2021/03/04 06:42:53;;;;;;;89.00;36.95;;;;;;;8.65;100.00;102627.34;5074088;28;20107;-64
2021/03/04 06:45:31;;;;;;;89.03;36.13;;;;;;;8.64;100.00;102637.41;5073756;28;20434;-64
2021/03/04 06:48:11;;;;;;;81.78;35.10;;;;;;;8.62;100.00;102631.31;5074216;28;20086;-64
2021/03/04 06:50:40;;;;;;;78.80;33.28;;;;;;;8.60;100.00;102637.97;5074069;28;20536;-64
2021/03/04 06:53:12;;;;;;;80.93;35.47;;;;;;;8.57;100.00;102633.75;5073569;28;20040;-64
2021/03/04 06:55:59;;;;;;;85.55;33.65;;;;;;;8.57;100.00;102641.91;5073871;28;20056;-64
2021/03/04 06:58:33;;;;;;;78.47;33.30;;;;;;;8.56;100.00;102637.50;5073809;28;20103;-64
2021/03/04 07:01:04;;;;;;;79.20;33.88;;;;;;;8.55;100.00;102641.25;5073772;28;20043;-64
2021/03/04 07:03:40;;;;;;;80.18;33.47;;;;;;;8.53;100.00;102640.59;5073796;28;20032;-64
2021/03/04 07:06:09;;;;;;;74.40;33.97;;;;;;;8.53;100.00;102646.06;5073949;28;20036;-63
2021/03/04 07:08:39;;;;;;;70.05;32.13;;;;;;;8.53;100.00;102646.06;5073652;28;20040;-64
2021/03/04 07:11:07;;;;;;;65.43;29.55;;;;;;;8.53;100.00;102646.06;5073619;28;20043;-64
2021/03/04 07:13:35;;;;;;;69.78;32.50;;;;;;;8.54;100.00;102647.75;5073277;28;20367;-64
2021/03/04 07:16:04;;;;;;;77.95;32.25;;;;;;;8.55;100.00;102649.44;5073431;28;20490;-64
2021/03/04 07:18:37;;;;;;;71.57;31.60;;;;;;;8.56;100.00;102656.56;5073525;28;20480;-64
2021/03/04 07:21:02;;;;;;;71.28;30.70;;;;;;;8.56;100.00;102651.13;5073360;28;20445;-64
2021/03/04 07:23:28;;;;;;;72.30;31.85;;;;;;;8.57;100.00;102658.25;5055200;28;20040;-64
2021/03/04 07:25:55;;;;;;;75.25;33.80;;;;;;;8.57;100.00;102662.84;5073134;28;20418;-64
2021/03/04 07:28:20;;;;;;;74.05;34.05;;;;;;;8.57;100.00;102663.72;5072990;28;20044;-64
2021/03/04 07:30:46;;;;;;;77.18;33.30;;;;;;;8.58;100.00;102659.94;5073315;28;20032;-64
2021/03/04 07:33:12;;;;;;;80.95;35.67;;;;;;;8.59;100.00;102664.38;5073134;28;20512;-64
2021/03/04 07:35:38;;;;;;;78.10;34.30;;;;;;;8.60;100.00;102674.22;5073084;28;20048;-64
2021/03/04 07:38:04;;;;;;;85.90;37.03;;;;;;;8.61;100.00;102670.47;5073110;28;20177;-64
2021/03/04 07:40:30;;;;;;;80.55;35.10;;;;;;;8.64;100.00;102664.66;5073074;28;20032;-64
2021/03/04 07:43:02;;;;;;;88.68;37.00;;;;;;;8.65;100.00;102666.34;5054765;28;20123;-64
2021/03/04 07:45:28;;;;;;;89.40;38.65;;;;;;;8.66;100.00;102673.47;5073160;28;20056;-64
2021/03/04 07:47:54;;;;;;;96.20;39.13;;;;;;;8.67;100.00;102679.78;5072963;28;20033;-64
2021/03/04 07:50:22;;;;;;;93.53;38.95;;;;;;;8.67;100.00;102686.06;5072573;28;20040;-63
2021/03/04 07:52:47;;;;;;;91.93;36.97;;;;;;;8.69;100.00;102684.03;5072798;28;20481;-64
2021/03/04 07:55:15;;;;;;;93.57;39.85;;;;;;;8.72;100.00;102685.53;5072962;28;20130;-64
2021/03/04 07:57:48;;;;;;;93.40;39.03;;;;;;;8.73;100.00;102688.06;5072704;28;20115;-64
2021/03/04 08:00:16;;;;;;;98.13;39.90;;;;;;;8.74;100.00;102692.50;5073111;28;20063;-64
2021/03/04 08:02:43;;;;;;;96.22;39.30;;;;;;;8.76;100.00;102690.41;5072526;28;20459;-64
2021/03/04 08:05:13;;;;;;;98.90;39.85;;;;;;;8.78;100.00;102687.50;5072524;28;20107;-64
2021/03/04 08:07:39;;;;;;;101.97;41.08;;;;;;;8.79;100.00;102693.81;5072638;28;20037;-64
2021/03/04 08:10:19;;;;;;;96.93;41.10;;;;;;;8.77;100.00;102689.38;5054747;28;20119;-64
2021/03/04 08:12:51;;;;;;;97.50;41.08;;;;;;;8.80;100.00;102690.03;5054209;28;20043;-63
2021/03/04 08:15:19;;;;;;;95.25;41.15;;;;;;;8.83;100.00;102689.66;5072757;28;20028;-64
2021/03/04 08:17:45;;;;;;;98.47;40.63;;;;;;;8.85;100.00;102687.59;5072399;28;20490;-64
2021/03/04 08:20:16;;;;;;;98.53;40.90;;;;;;;8.84;100.00;102684.03;5072163;28;20050;-64
2021/03/04 08:22:53;;;;;;;104.75;40.20;;;;;;;8.85;100.00;102687.59;5072211;28;20041;-64
2021/03/04 08:25:24;;;;;;;104.93;42.15;;;;;;;8.86;100.00;102683.88;5072192;28;20063;-64
2021/03/04 08:27:52;;;;;;;104.68;41.95;;;;;;;8.88;100.00;102682.66;5071989;28;20028;-64
2021/03/04 08:30:37;;;;;;;103.60;41.67;;;;;;;8.91;100.00;102692.31;5072165;28;20035;-64
2021/03/04 08:33:14;;;;;;;93.18;40.45;;;;;;;8.95;100.00;102682.75;5072269;28;20124;-64
2021/03/04 08:35:45;;;;;;;107.75;40.38;;;;;;;8.97;100.00;102686.13;5071183;28;20032;-64
2021/03/04 08:38:13;;;;;;;102.10;40.30;;;;;;;8.98;100.00;102688.66;5071931;28;20059;-64
2021/03/04 08:40:43;;;;;;;106.15;42.58;;;;;;;8.99;100.00;102686.78;5071817;28;20067;-63
2021/03/04 08:43:16;;;;;;;105.95;40.70;;;;;;;9.02;100.00;102689.13;5071485;28;20064;-64
2021/03/04 08:45:43;;;;;;;108.38;42.35;;;;;;;9.05;100.00;102683.31;5071672;28;20139;-64
2021/03/04 08:48:11;;;;;;;103.43;40.63;;;;;;;9.04;100.00;102687.09;5071759;28;20489;-64
2021/03/04 08:50:42;;;;;;;104.15;40.90;;;;;;;9.07;100.00;102693.00;5081712;28;20035;-63
2021/03/04 08:53:10;;;;;;;111.15;42.20;;;;;;;9.10;100.00;102691.78;5078665;28;20122;-64
2021/03/04 08:55:52;;;;;;;110.07;42.10;;;;;;;9.11;100.00;102687.19;5072152;28;20045;-63
2021/03/04 08:58:19;;;;;;;108.65;42.17;;;;;;;9.13;100.00;102690.56;5071325;28;20111;-63
2021/03/04 09:00:55;;;;;;;113.30;43.75;;;;;;;9.14;100.00;102692.25;5071683;28;20041;-63
2021/03/04 09:03:25;;;;;;;107.50;39.55;;;;;;;9.16;100.00;102691.03;5071390;28;20524;-63
2021/03/04 09:06:15;;;;;;;109.40;43.67;;;;;;;9.17;100.00;102686.41;5071414;28;20039;-63
2021/03/04 09:08:43;;;;;;;103.43;41.25;;;;;;;9.18;100.00;102694.41;5071374;28;20494;-61
2021/03/04 09:11:26;;;;;;;114.25;43.90;;;;;;;9.21;100.00;102699.50;5071170;28;20470;-61
2021/03/04 09:14:00;;;;;;;113.65;44.47;;;;;;;9.24;100.00;102698.28;5070904;28;20040;-62
2021/03/04 09:16:26;;;;;;;108.40;42.03;;;;;;;9.26;100.00;102702.50;5071434;28;20032;-63
2021/03/04 09:18:52;;;;;;;105.53;41.92;;;;;;;9.29;100.00;102688.50;5071229;28;20036;-61
2021/03/04 09:21:18;;;;;;;109.82;43.17;;;;;;;9.33;100.00;102702.59;5070863;28;20044;-62
2021/03/04 09:23:44;;;;;;;96.53;39.92;;;;;;;9.35;100.00;102693.19;5071371;28;20140;-63
2021/03/04 09:26:10;;;;;;;110.20;40.92;;;;;;;9.41;100.00;102688.03;5070762;28;20036;-62
2021/03/04 09:28:37;;;;;;;107.95;41.28;;;;;;;9.44;100.00;102698.56;5070856;28;20078;-67
2021/03/04 09:31:12;;;;;;;107.40;41.70;;;;;;;9.45;100.00;102692.91;5053337;28;20044;-68
2021/03/04 09:33:38;;;;;;;109.32;42.03;;;;;;;9.47;100.00;102698.16;5070981;28;20101;-64
2021/03/04 09:36:05;;;;;;;105.95;40.88;;;;;;;9.48;100.00;102694.41;5070787;28;20064;-66
2021/03/04 09:38:34;;;;;;;103.53;39.83;;;;;;;9.51;100.00;102694.03;5070893;28;20064;-66
2021/03/04 09:41:18;;;;;;;95.60;40.58;;;;;;;9.54;100.00;102704.53;5071045;28;20029;-64
2021/03/04 09:43:46;;;;;;;99.97;40.28;;;;;;;9.57;100.00;102698.72;5070896;28;20127;-66
2021/03/04 09:46:24;;;;;;;96.90;39.17;;;;;;;9.59;100.00;102691.19;5070630;28;20666;-65
2021/03/04 09:48:50;;;;;;;109.13;41.10;;;;;;;9.62;100.00;102690.81;5070735;28;20032;-66
2021/03/04 09:51:15;;;;;;;104.53;41.08;;;;;;;9.66;100.00;102697.56;5070781;28;20143;-65
2021/03/04 09:53:48;;;;;;;106.07;41.65;;;;;;;9.70;100.00;102693.41;5070495;28;20045;-66
2021/03/04 09:56:21;;;;;;;101.68;39.40;;;;;;;9.72;100.00;102691.38;5070601;28;20032;-66
2021/03/04 09:58:48;;;;;;;94.05;38.53;;;;;;;9.75;100.00;102691.00;5069620;28;20029;-65
2021/03/04 10:01:13;;;;;;;96.95;39.00;;;;;;;9.78;100.00;102685.13;5071067;28;20386;-63
2021/03/04 10:03:40;;;;;;;89.40;35.30;;;;;;;9.77;100.00;102686.19;5070366;28;20032;-66
2021/03/04 10:06:18;;;;;;;84.32;35.25;;;;;;;9.77;100.00;102686.19;5070780;28;20028;-66
2021/03/04 10:08:44;;;;;;;95.13;36.53;;;;;;;9.78;100.00;102690.59;5070693;28;20040;-65
2021/03/04 10:11:24;;;;;;;90.15;36.08;;;;;;;9.82;100.00;102691.91;5070591;28;20411;-65
2021/03/04 10:13:50;;;;;;;88.60;33.40;;;;;;;9.82;100.00;102680.97;5069150;28;20044;-65
2021/03/04 10:16:16;;;;;;;79.57;32.47;;;;;;;9.86;100.00;102682.28;5069481;28;20379;-66
2021/03/04 10:18:46;;;;;;;86.53;34.08;;;;;;;9.89;100.00;102676.47;5070401;28;20097;-65
2021/03/04 10:21:16;;;;;;;80.55;32.75;;;;;;;9.94;100.00;102679.44;5070393;28;20120;-65
2021/03/04 10:23:47;;;;;;;80.32;33.20;;;;;;;9.98;100.00;102686.22;5070789;28;20039;-65
2021/03/04 10:26:13;;;;;;;79.47;32.13;;;;;;;10.03;100.00;102682.88;5070257;28;20040;-67
2021/03/04 10:28:39;;;;;;;75.95;30.85;;;;;;;10.08;100.00;102695.97;5070339;28;20041;-65
2021/03/04 10:31:04;;;;;;;76.28;30.45;;;;;;;10.10;100.00;102691.16;5052400;28;20036;-66
2021/03/04 10:33:30;;;;;;;67.03;28.58;;;;;;;10.11;100.00;102685.50;5070025;28;20406;-66
2021/03/04 10:35:56;;;;;;;68.25;29.65;;;;;;;10.14;100.00;102684.28;5070209;28;20059;-66
2021/03/04 10:38:21;;;;;;;64.10;28.35;;;;;;;10.10;100.00;102678.38;5070353;28;20471;-67
2021/03/04 10:40:47;;;;;;;64.60;28.48;;;;;;;10.13;100.00;102683.44;5070033;28;20032;-67
2021/03/04 10:43:12;;;;;;;66.68;27.55;;;;;;;10.16;100.00;102676.72;5070507;28;20036;-66
2021/03/04 10:45:38;;;;;;;72.10;29.80;;;;;;;10.24;100.00;102690.31;5051991;28;20130;-65
2021/03/04 10:48:05;;;;;;;72.40;28.63;;;;;;;10.30;100.00;102686.78;5070205;28;20430;-65
2021/03/04 10:50:30;;;;;;;72.22;30.85;;;;;;;10.37;100.00;102695.88;5070286;28;20375;-64
2021/03/04 10:52:56;;;;;;;71.95;29.83;;;;;;;10.41;100.00;102691.75;5069928;28;20047;-65
2021/03/04 10:55:22;;;;;;;59.83;27.70;;;;;;;10.44;100.00;102690.50;5070083;28;20056;-65
2021/03/04 10:57:47;;;;;;;67.72;29.17;;;;;;;10.46;100.00;102689.25;5070079;28;20043;-64
2021/03/04 11:00:13;;;;;;;62.17;27.83;;;;;;;10.49;100.00;102688.84;5072376;28;20495;-65
2021/03/04 11:02:39;;;;;;;66.70;29.63;;;;;;;10.55;100.00;102688.06;5055594;28;20044;-65
2021/03/04 11:05:07;;;;;;;66.97;29.90;;;;;;;10.56;100.00;102689.75;5073708;28;20032;-65
2021/03/04 11:07:33;;;;;;;68.90;30.33;;;;;;;10.61;100.00;102691.06;5056106;28;20509;-65
2021/03/04 11:09:59;;;;;;;64.60;28.27;;;;;;;10.65;100.00;102686.88;5073698;28;20131;-65